Gore Bay Manitoulin Airport
CYZE : now visible

Airfield :











YOU CAN JOIN US ON...

 
LOGIN :

Register | Disclaimer

   EN    FR    IT 

 









Legend :    VFR   Marginal VFR   IFR   Intensive IFR   Very Intensive IFR
Visi :
Ceiling :
>= 8 km
>= 3000ft
5 to 8 km
1000 to 3000 ft
1500m to 5 km
500 to 1000 ft
800 to 1500m
200 to 500 ft
< 800m
< 200 ft
Symbols :   Thunderstorms  Fog  Heavy snow  Heavy precipitations  Wind > 20 kt






- Airport Elevation : 635 ft
- IATA code : YZE


CYZE - Gore Bay Manitoulin

CURRENT METAR :
  • 031500Z AUTO 02007KT 9SM BKN043 BKN050 BKN080 25/20 A3003 RMK SLP168 DENSITY ALT 1700FT

EXPIRED METARs :
  • 031400Z AUTO 02006KT 9SM BKN045 24/20 A3002 RMK SLP167 DENSITY ALT 1700FT
  • 031300Z AUTO 01005KT 9SM SCT047 22/20 A3001 RMK SLP163 DENSITY ALT 1500FT

TAF TAF CYZE
Valid from the 03 at 14:00 until the 03 at 22:00 UTC


031338Z 0314/0322 01005KT P6SM SCT050
TEMPO 0318/0322 BKN050
BECMG 0318/0320 33008KT RMK FCST BASED ON AUTO OBS. NXT FCST BY 032000Z
CZYZ FIR / North America



MET'MAP, your aeronautical weather chart ! - Copyright ORBIFLY December 2007 - Disclaimer

ORBIFLY MET'MAP TEAM :

Programming & Development : Alexandra Zaïnal
Concept & original design : Baudouin d'Aumeries
Assistance for programming : Marc-Olivier Méhu
Technical & hardware support : Manuel Goepfert

Contact : metmap@orbifly.com




SOURCES & CREDITS :

   NOAA       Earth
Advisory